createdAt,value
2022-09-09T00:04:21.944Z,71.36
2022-09-09T00:09:29.407Z,71.23
2022-09-09T00:14:45.923Z,71.27
2022-09-09T00:20:13.335Z,70.98
2022-09-09T00:25:52.606Z,70.91
2022-09-09T00:30:56.222Z,71.00
2022-09-09T00:35:59.598Z,71.13
2022-09-09T00:41:15.777Z,70.93
2022-09-09T00:46:36.027Z,71.09
2022-09-09T00:51:37.952Z,70.98
2022-09-09T00:57:17.949Z,70.72
2022-09-09T01:02:31.707Z,70.88
2022-09-09T01:07:33.766Z,70.96
2022-09-09T01:12:43.029Z,70.57
2022-09-09T01:18:12.727Z,70.62
2022-09-09T01:23:40.463Z,70.51
2022-09-09T01:34:32.703Z,70.52
2022-09-09T01:39:36.132Z,70.57
2022-09-09T01:44:42.702Z,70.71
2022-09-09T01:49:45.094Z,70.52
2022-09-09T01:54:56.795Z,70.39
2022-09-09T02:00:21.496Z,70.32
2022-09-09T02:05:40.720Z,70.26
2022-09-09T02:11:02.862Z,70.51
2022-09-09T02:16:42.670Z,70.49
2022-09-09T02:21:46.802Z,70.23
2022-09-09T02:26:53.871Z,70.52
2022-09-09T02:32:01.136Z,70.51
2022-09-09T02:37:10.754Z,70.40
2022-09-09T02:42:16.017Z,70.48
2022-09-09T02:47:56.127Z,70.21
2022-09-09T02:53:08.774Z,70.22
2022-09-09T02:58:19.717Z,70.45
2022-09-09T03:03:31.439Z,70.06
2022-09-09T03:08:36.021Z,70.04
2022-09-09T03:13:39.087Z,70.19
2022-09-09T03:18:41.410Z,70.27
2022-09-09T03:23:43.337Z,69.97
2022-09-09T03:28:45.866Z,70.24
2022-09-09T03:33:51.011Z,69.97
2022-09-09T03:38:56.044Z,69.93
2022-09-09T03:44:00.273Z,69.83
2022-09-09T03:49:06.077Z,69.82
2022-09-09T03:54:11.163Z,69.86
2022-09-09T03:59:15.394Z,70.07
2022-09-09T04:04:18.923Z,69.80
2022-09-09T04:09:20.858Z,69.94
2022-09-09T04:14:24.711Z,69.83
2022-09-09T04:19:26.850Z,69.84
2022-09-09T04:24:30.215Z,69.59
2022-09-09T04:29:34.736Z,69.58
2022-09-09T04:34:37.390Z,69.80
2022-09-09T04:39:39.396Z,69.75
2022-09-09T04:44:42.298Z,69.94
2022-09-09T04:49:44.278Z,69.73
2022-09-09T04:54:46.999Z,69.87
2022-09-09T04:59:49.110Z,70.00
2022-09-09T05:04:51.183Z,69.97
2022-09-09T05:09:53.332Z,69.95
2022-09-09T05:14:55.316Z,70.26
2022-09-09T05:19:57.963Z,70.24
2022-09-09T05:25:02.218Z,70.42
2022-09-09T05:30:05.658Z,70.38
2022-09-09T05:35:08.052Z,70.45
2022-09-09T05:40:12.201Z,70.70
2022-09-09T05:45:15.479Z,70.90
2022-09-09T05:50:17.546Z,70.96
2022-09-09T05:55:19.518Z,71.43
2022-09-09T06:00:22.667Z,71.24
2022-09-09T06:05:25.822Z,71.67
2022-09-09T06:10:27.953Z,71.74
2022-09-09T06:15:31.690Z,71.54
2022-09-09T06:20:33.646Z,71.31
2022-09-09T06:25:35.578Z,71.22
2022-09-09T06:30:37.967Z,71.14
2022-09-09T06:35:40.367Z,71.05
2022-09-09T06:40:42.437Z,71.16
2022-09-09T06:45:46.123Z,70.74
2022-09-09T06:50:48.553Z,71.09
2022-09-09T06:55:50.900Z,70.88
2022-09-09T07:00:52.876Z,70.95
2022-09-09T07:05:57.264Z,70.82
2022-09-09T07:11:12.240Z,70.84
2022-09-09T07:16:18.941Z,70.43
2022-09-09T07:21:22.663Z,70.67
2022-09-09T07:26:28.368Z,70.70
2022-09-09T07:31:33.781Z,70.39
2022-09-09T07:36:39.165Z,70.49
2022-09-09T07:41:45.962Z,70.19
2022-09-09T07:46:49.802Z,70.65
2022-09-09T07:51:56.264Z,70.20
2022-09-09T07:57:00.293Z,69.96
2022-09-09T08:02:05.336Z,69.80
2022-09-09T08:07:10.136Z,70.16
2022-09-09T08:12:19.636Z,70.38
2022-09-09T08:17:21.689Z,70.52
2022-09-09T08:22:25.611Z,70.57
2022-09-09T08:27:27.601Z,70.44
2022-09-09T08:32:30.467Z,70.18
2022-09-09T08:37:33.001Z,70.06
2022-09-09T08:42:53.334Z,69.39
2022-09-09T08:48:16.564Z,69.71
2022-09-09T08:53:31.457Z,69.61
2022-09-09T08:58:36.426Z,69.66
2022-09-09T09:04:26.839Z,69.84
2022-09-09T09:10:09.165Z,69.74
2022-09-09T09:15:32.753Z,70.23
2022-09-09T09:20:43.647Z,70.34
2022-09-09T09:25:46.546Z,70.70
2022-09-09T09:31:04.810Z,71.35
2022-09-09T09:36:09.593Z,71.36
2022-09-09T09:41:13.510Z,72.03
2022-09-09T09:46:24.999Z,71.96
2022-09-09T09:51:32.949Z,72.05
2022-09-09T09:56:35.596Z,72.47
2022-09-09T10:01:40.949Z,72.32
2022-09-09T10:06:46.127Z,72.25
2022-09-09T10:12:06.308Z,72.07
2022-09-09T10:17:18.191Z,72.28
2022-09-09T10:22:26.001Z,71.98
2022-09-09T10:27:33.678Z,71.84
2022-09-09T10:32:44.531Z,71.93
2022-09-09T10:38:04.856Z,72.03
2022-09-09T10:43:25.107Z,72.05
2022-09-09T10:49:05.328Z,71.80
2022-09-09T10:54:25.819Z,72.03
2022-09-09T10:59:36.311Z,72.17
2022-09-09T11:04:50.747Z,72.00
2022-09-09T11:09:59.809Z,72.11
2022-09-09T11:15:21.247Z,72.47
2022-09-09T11:20:26.392Z,72.64
2022-09-09T11:25:38.263Z,72.82
2022-09-09T11:31:29.598Z,72.70
2022-09-09T11:36:48.489Z,73.02
2022-09-09T11:41:50.590Z,73.04
2022-09-09T11:46:53.383Z,73.90
2022-09-09T11:51:56.006Z,74.19
2022-09-09T11:56:58.412Z,74.37
2022-09-09T12:02:19.984Z,74.41
2022-09-09T12:07:25.584Z,74.30
2022-09-09T12:12:43.163Z,74.82
2022-09-09T12:17:54.400Z,74.66
2022-09-09T12:23:17.252Z,75.16
2022-09-09T12:28:21.837Z,74.99
2022-09-09T12:33:24.725Z,74.90
2022-09-09T12:38:35.362Z,74.46
2022-09-09T12:43:37.461Z,74.38
2022-09-09T12:48:46.669Z,74.51
2022-09-09T12:53:48.921Z,74.56
2022-09-09T12:58:53.222Z,74.33
2022-09-09T13:03:56.296Z,73.92
2022-09-09T13:09:01.457Z,73.10
2022-09-09T13:14:04.191Z,72.26
2022-09-09T13:19:13.978Z,71.14
2022-09-09T13:24:35.864Z,70.22
2022-09-09T13:29:38.370Z,70.25
2022-09-09T13:34:40.857Z,69.27
2022-09-09T13:39:56.570Z,68.47
2022-09-09T13:45:01.151Z,67.77
2022-09-09T13:50:31.681Z,66.87
2022-09-09T13:55:33.966Z,67.13
2022-09-09T14:00:36.331Z,67.13
2022-09-09T14:05:38.853Z,67.00
2022-09-09T14:10:40.681Z,66.90
2022-09-09T14:15:42.553Z,66.83
2022-09-09T14:20:44.383Z,66.85
2022-09-09T14:25:46.189Z,66.89
2022-09-09T14:30:48.047Z,66.82
2022-09-09T14:36:05.542Z,66.69
2022-09-09T14:41:10.218Z,67.09
2022-09-09T14:46:14.799Z,66.78
2022-09-09T14:51:20.640Z,66.40
2022-09-09T14:56:25.653Z,66.44
2022-09-09T15:01:28.694Z,66.88
2022-09-09T15:06:34.216Z,66.84
2022-09-09T15:11:40.577Z,67.20
2022-09-09T15:16:42.500Z,67.05
2022-09-09T15:21:44.676Z,66.87
2022-09-09T15:26:47.668Z,67.10
2022-09-09T15:31:49.453Z,67.77
2022-09-09T15:36:51.251Z,67.91
2022-09-09T15:41:53.184Z,68.46
2022-09-09T15:46:55.277Z,68.76
2022-09-09T15:52:00.486Z,68.76
2022-09-09T15:57:04.213Z,69.09
2022-09-09T16:02:07.756Z,69.30
2022-09-09T16:07:10.844Z,69.48
2022-09-09T16:12:14.083Z,69.68
2022-09-09T16:17:16.315Z,69.97
2022-09-09T16:22:19.369Z,70.21
2022-09-09T16:27:21.126Z,70.47
2022-09-09T16:32:23.422Z,70.76
2022-09-09T16:37:25.226Z,70.98
2022-09-09T16:42:26.996Z,70.78
2022-09-09T16:47:28.937Z,70.87
2022-09-09T16:52:30.765Z,70.89
2022-09-09T16:57:32.577Z,71.12
2022-09-09T17:02:34.562Z,70.88
2022-09-09T17:07:36.927Z,71.03
2022-09-09T17:12:42.173Z,70.46
2022-09-09T17:17:46.078Z,70.20
2022-09-09T17:22:47.967Z,69.99
2022-09-09T17:27:49.986Z,69.42
2022-09-09T17:32:51.778Z,69.17
2022-09-09T17:37:55.392Z,68.69
2022-09-09T17:42:58.156Z,68.45
2022-09-09T17:47:59.986Z,67.87
2022-09-09T17:53:03.492Z,67.29
2022-09-09T17:58:06.000Z,66.97
2022-09-09T18:03:08.640Z,66.31
2022-09-09T18:08:10.526Z,66.19
2022-09-09T18:13:12.317Z,65.72
2022-09-09T18:18:14.234Z,65.27
2022-09-09T18:23:16.215Z,65.00
2022-09-09T18:28:20.201Z,65.44
2022-09-09T18:33:24.366Z,65.63
2022-09-09T18:38:26.197Z,65.45
2022-09-09T18:43:28.012Z,65.74
2022-09-09T18:48:30.016Z,66.01
2022-09-09T18:53:32.503Z,66.30
2022-09-09T18:58:36.056Z,66.31
2022-09-09T19:03:38.521Z,66.35
2022-09-09T19:08:42.500Z,66.19
2022-09-09T19:13:50.887Z,66.52
2022-09-09T19:18:52.877Z,66.84
2022-09-09T19:24:01.885Z,66.72
2022-09-09T19:29:03.777Z,66.75
2022-09-09T19:34:05.769Z,67.23
2022-09-09T19:39:08.882Z,67.25
2022-09-09T19:44:13.391Z,67.31
2022-09-09T19:49:15.695Z,67.42
2022-09-09T19:54:17.792Z,67.59
2022-09-09T19:59:19.744Z,67.71
2022-09-09T20:04:21.567Z,67.74
2022-09-09T20:09:25.902Z,67.38
2022-09-09T20:14:27.853Z,67.71
2022-09-09T20:19:29.757Z,67.89
2022-09-09T20:24:31.563Z,68.17
2022-09-09T20:29:33.638Z,68.24
2022-09-09T20:34:35.523Z,67.99
2022-09-09T20:39:37.394Z,68.17
2022-09-09T20:44:39.170Z,68.21
2022-09-09T20:49:40.993Z,67.92
2022-09-09T20:54:42.762Z,68.18
2022-09-09T20:59:48.162Z,68.24
2022-09-09T21:04:49.905Z,68.03
2022-09-09T21:09:51.882Z,68.27
2022-09-09T21:14:53.675Z,68.22
2022-09-09T21:19:57.403Z,68.11
2022-09-09T21:24:59.552Z,68.30
2022-09-09T21:30:03.927Z,68.43
2022-09-09T21:35:07.122Z,68.28
2022-09-09T21:40:09.503Z,68.67
2022-09-09T21:45:11.326Z,68.79
2022-09-09T21:50:14.425Z,68.63
2022-09-09T21:55:16.503Z,68.78
2022-09-09T22:00:18.382Z,68.55
2022-09-09T22:05:20.169Z,68.82
2022-09-09T22:10:23.194Z,68.97
2022-09-09T22:15:25.148Z,68.70
2022-09-09T22:20:27.062Z,68.65
2022-09-09T22:25:35.372Z,68.72
2022-09-09T22:30:38.118Z,68.41
2022-09-09T22:35:43.397Z,67.97
2022-09-09T22:40:45.143Z,67.50
2022-09-09T22:45:47.941Z,67.18
2022-09-09T22:50:49.671Z,66.68
2022-09-09T22:55:59.480Z,66.51
2022-09-09T23:01:07.537Z,66.10
2022-09-09T23:06:11.975Z,65.99
2022-09-09T23:11:14.123Z,65.82
2022-09-09T23:16:19.268Z,65.58
2022-09-09T23:21:23.182Z,65.23
2022-09-09T23:26:26.791Z,64.87
2022-09-09T23:31:33.109Z,64.98
2022-09-09T23:36:35.372Z,64.87
2022-09-09T23:41:38.156Z,64.67
2022-09-09T23:46:40.200Z,64.61
2022-09-09T23:51:42.110Z,64.85
2022-09-09T23:56:44.641Z,64.63
